createdAt,value
2022-08-30T00:00:53.430Z,18.75
2022-08-30T00:01:53.420Z,18.73
2022-08-30T00:02:53.510Z,18.70
2022-08-30T00:03:53.515Z,18.69
2022-08-30T00:04:53.389Z,18.66
2022-08-30T00:05:53.383Z,18.63
2022-08-30T00:06:53.376Z,18.58
2022-08-30T00:07:53.395Z,18.55
2022-08-30T00:08:53.393Z,18.54
2022-08-30T00:09:53.373Z,18.54
2022-08-30T00:10:53.330Z,18.52
2022-08-30T00:11:53.327Z,18.50
2022-08-30T00:12:53.322Z,18.47
2022-08-30T00:13:53.304Z,18.44
2022-08-30T00:14:53.287Z,18.41
2022-08-30T00:15:53.392Z,18.42
2022-08-30T00:16:53.268Z,18.42
2022-08-30T00:17:53.280Z,18.42
2022-08-30T00:18:53.258Z,18.42
2022-08-30T00:19:53.258Z,18.41
2022-08-30T00:20:53.232Z,18.41
2022-08-30T00:21:53.224Z,18.37
2022-08-30T00:22:53.233Z,18.39
2022-08-30T00:23:53.191Z,18.39
2022-08-30T00:24:53.187Z,18.42
2022-08-30T00:25:53.170Z,18.41
2022-08-30T00:26:53.164Z,18.41
2022-08-30T00:27:53.151Z,18.39
2022-08-30T00:28:53.157Z,18.37
2022-08-30T00:29:53.130Z,18.35
2022-08-30T00:30:53.199Z,18.33
2022-08-30T00:31:53.163Z,18.33
2022-08-30T00:32:53.099Z,18.33
2022-08-30T00:33:53.102Z,18.32
2022-08-30T00:34:53.089Z,18.32
2022-08-30T00:35:53.089Z,18.32
2022-08-30T00:36:53.075Z,18.30
2022-08-30T00:37:53.057Z,18.29
2022-08-30T00:38:53.050Z,18.30
2022-08-30T00:39:53.026Z,18.32
2022-08-30T00:40:53.019Z,18.30
2022-08-30T00:41:53.006Z,18.30
2022-08-30T00:42:58.119Z,18.27
2022-08-30T00:43:54.003Z,18.29
2022-08-30T00:44:52.972Z,18.29
2022-08-30T00:45:52.992Z,18.27
2022-08-30T00:46:52.952Z,18.25
2022-08-30T00:47:52.954Z,18.23
2022-08-30T00:48:52.950Z,18.23
2022-08-30T00:49:52.922Z,18.21
2022-08-30T00:50:52.913Z,18.23
2022-08-30T00:51:52.909Z,18.23
2022-08-30T00:52:52.889Z,18.20
2022-08-30T00:53:52.898Z,18.17
2022-08-30T00:54:52.868Z,18.15
2022-08-30T00:55:52.877Z,18.14
2022-08-30T00:56:52.856Z,18.12
2022-08-30T00:57:52.839Z,18.12
2022-08-30T00:58:52.852Z,18.11
2022-08-30T00:59:52.816Z,18.08
2022-08-30T01:00:52.814Z,18.10
2022-08-30T01:01:52.898Z,18.08
2022-08-30T01:02:52.841Z,18.08
2022-08-30T01:03:52.795Z,18.08
2022-08-30T01:04:52.766Z,18.07
2022-08-30T01:05:52.758Z,18.07
2022-08-30T01:06:52.743Z,18.07
2022-08-30T01:07:52.732Z,18.02
2022-08-30T01:08:52.739Z,17.99
2022-08-30T01:09:52.712Z,17.96
2022-08-30T01:10:52.710Z,17.92
2022-08-30T01:11:52.708Z,17.92
2022-08-30T01:12:52.700Z,17.92
2022-08-30T01:13:52.671Z,17.89
2022-08-30T01:14:52.696Z,17.89
2022-08-30T01:15:52.712Z,17.87
2022-08-30T01:16:52.636Z,17.87
2022-08-30T01:17:52.643Z,17.87
2022-08-30T01:18:52.618Z,17.86
2022-08-30T01:19:52.610Z,17.87
2022-08-30T01:20:52.602Z,17.86
2022-08-30T01:21:52.617Z,17.89
2022-08-30T01:22:52.610Z,17.87
2022-08-30T01:23:52.567Z,17.87
2022-08-30T01:24:52.558Z,17.87
2022-08-30T01:25:52.547Z,17.87
2022-08-30T01:26:52.561Z,17.87
2022-08-30T01:27:52.528Z,17.86
2022-08-30T01:28:52.528Z,17.87
2022-08-30T01:29:52.502Z,17.87
2022-08-30T01:30:52.514Z,17.87
2022-08-30T01:31:52.480Z,17.87
2022-08-30T01:32:52.469Z,17.89
2022-08-30T01:33:52.483Z,17.92
2022-08-30T01:34:52.450Z,17.90
2022-08-30T01:35:52.452Z,17.93
2022-08-30T01:36:52.427Z,17.90
2022-08-30T01:37:52.423Z,17.92
2022-08-30T01:38:52.571Z,17.92
2022-08-30T01:39:52.425Z,17.92
2022-08-30T01:40:52.396Z,17.92
2022-08-30T01:41:52.376Z,17.93
2022-08-30T01:42:52.365Z,17.90
2022-08-30T01:43:52.370Z,17.89
2022-08-30T01:44:52.342Z,17.89
2022-08-30T01:45:52.414Z,17.90
2022-08-30T01:46:52.336Z,17.89
2022-08-30T01:47:52.325Z,17.90
2022-08-30T01:48:53.984Z,17.92
2022-08-30T01:49:52.294Z,17.92
2022-08-30T01:50:52.282Z,17.92
2022-08-30T01:52:00.471Z,17.92
2022-08-30T01:52:53.261Z,17.92
2022-08-30T01:53:52.265Z,17.90
2022-08-30T01:54:52.243Z,17.92
2022-08-30T01:55:52.231Z,17.89
2022-08-30T01:56:52.216Z,17.89
2022-08-30T01:57:52.209Z,17.87
2022-08-30T01:58:52.238Z,17.89
2022-08-30T01:59:52.218Z,17.87
2022-08-30T02:00:52.186Z,17.90
2022-08-30T02:01:52.243Z,17.89
2022-08-30T02:02:52.166Z,17.89
2022-08-30T02:03:52.202Z,17.90
2022-08-30T02:04:52.140Z,17.89
2022-08-30T02:05:52.141Z,17.89
2022-08-30T02:06:52.139Z,17.87
2022-08-30T02:07:52.118Z,17.86
2022-08-30T02:08:52.096Z,17.86
2022-08-30T02:09:52.084Z,17.87
2022-08-30T02:10:52.070Z,17.86
2022-08-30T02:11:52.060Z,17.86
2022-08-30T02:12:52.092Z,17.86
2022-08-30T02:13:52.049Z,17.82
2022-08-30T02:14:52.046Z,17.84
2022-08-30T02:15:52.021Z,17.81
2022-08-30T02:16:52.088Z,17.79
2022-08-30T02:17:52.026Z,17.79
2022-08-30T02:18:52.011Z,17.78
2022-08-30T02:19:52.036Z,17.78
2022-08-30T02:20:51.970Z,17.79
2022-08-30T02:21:51.959Z,17.78
2022-08-30T02:22:51.951Z,17.77
2022-08-30T02:23:51.949Z,17.78
2022-08-30T02:24:51.927Z,17.79
2022-08-30T02:25:51.917Z,17.79
2022-08-30T02:26:51.911Z,17.79
2022-08-30T02:27:51.911Z,17.79
2022-08-30T02:28:51.950Z,17.79
2022-08-30T02:29:51.873Z,17.81
2022-08-30T02:30:51.990Z,17.81
2022-08-30T02:31:51.856Z,17.78
2022-08-30T02:32:51.846Z,17.78
2022-08-30T02:33:51.851Z,17.77
2022-08-30T02:34:51.820Z,17.77
2022-08-30T02:35:51.809Z,17.77
2022-08-30T02:36:51.801Z,17.75
2022-08-30T02:37:51.805Z,17.75
2022-08-30T02:38:51.783Z,17.74
2022-08-30T02:39:51.768Z,17.71
2022-08-30T02:40:51.778Z,17.70
2022-08-30T02:41:51.753Z,17.68
2022-08-30T02:42:51.752Z,17.63
2022-08-30T02:43:51.768Z,17.62
2022-08-30T02:44:51.720Z,17.58
2022-08-30T02:45:51.807Z,17.55
2022-08-30T02:46:51.693Z,17.52
2022-08-30T02:47:51.684Z,17.49
2022-08-30T02:48:51.687Z,17.46
2022-08-30T02:49:51.664Z,17.44
2022-08-30T02:50:51.665Z,17.41
2022-08-30T02:51:51.645Z,17.38
2022-08-30T02:52:51.651Z,17.36
2022-08-30T02:53:51.658Z,17.34
2022-08-30T02:54:51.663Z,17.31
2022-08-30T02:55:51.620Z,17.31
2022-08-30T02:56:51.596Z,17.31
2022-08-30T02:57:51.591Z,17.31
2022-08-30T02:58:51.581Z,17.28
2022-08-30T02:59:51.558Z,17.25
2022-08-30T03:00:51.623Z,17.25
2022-08-30T03:01:51.537Z,17.22
2022-08-30T03:02:51.526Z,17.23
2022-08-30T03:03:51.607Z,17.19
2022-08-30T03:04:51.520Z,17.18
2022-08-30T03:05:51.514Z,17.18
2022-08-30T03:06:51.486Z,17.16
2022-08-30T03:07:51.474Z,17.15
2022-08-30T03:08:51.480Z,17.16
2022-08-30T03:09:51.465Z,17.14
2022-08-30T03:10:51.473Z,17.14
2022-08-30T03:11:51.441Z,17.11
2022-08-30T03:12:51.421Z,17.11
2022-08-30T03:13:51.429Z,17.08
2022-08-30T03:14:51.402Z,17.06
2022-08-30T03:15:51.391Z,17.07
2022-08-30T03:16:51.447Z,17.07
2022-08-30T03:17:51.384Z,17.06
2022-08-30T03:18:51.382Z,17.03
2022-08-30T03:19:51.353Z,17.03
2022-08-30T03:20:54.617Z,17.03
2022-08-30T03:21:51.332Z,17.01
2022-08-30T03:22:51.331Z,17.01
2022-08-30T03:23:51.337Z,17.00
2022-08-30T03:24:51.298Z,16.98
2022-08-30T03:25:51.289Z,16.97
2022-08-30T03:26:51.277Z,16.96
2022-08-30T03:27:51.268Z,16.94
2022-08-30T03:28:51.270Z,16.93
2022-08-30T03:29:51.247Z,16.91
2022-08-30T03:30:51.240Z,16.91
2022-08-30T03:31:53.011Z,16.89
2022-08-30T03:32:51.452Z,16.91
2022-08-30T03:33:51.239Z,16.91
2022-08-30T03:34:51.226Z,16.93
2022-08-30T03:35:51.186Z,16.93
2022-08-30T03:36:51.181Z,16.93
2022-08-30T03:37:56.147Z,16.89
2022-08-30T03:38:52.194Z,16.88
2022-08-30T03:39:51.143Z,16.88
2022-08-30T03:40:51.135Z,16.86
2022-08-30T03:41:51.126Z,16.83
2022-08-30T03:42:51.111Z,16.82
2022-08-30T03:43:51.108Z,16.83
2022-08-30T03:44:51.110Z,16.82
2022-08-30T03:45:51.162Z,16.85
2022-08-30T03:46:51.072Z,16.82
2022-08-30T03:47:51.060Z,16.83
2022-08-30T03:48:51.047Z,16.83
2022-08-30T03:49:51.054Z,16.83
2022-08-30T03:50:51.029Z,16.85
2022-08-30T03:51:51.021Z,16.83
2022-08-30T03:52:51.008Z,16.83
2022-08-30T03:53:51.001Z,16.82
2022-08-30T03:54:50.999Z,16.79
2022-08-30T03:55:50.986Z,16.76
2022-08-30T03:56:50.977Z,16.73
2022-08-30T03:57:50.959Z,16.70
2022-08-30T03:58:50.956Z,16.70
2022-08-30T03:59:50.953Z,16.66
2022-08-30T04:00:51.054Z,16.64
2022-08-30T04:01:51.001Z,16.61
2022-08-30T04:02:50.929Z,16.63
2022-08-30T04:03:50.897Z,16.63
2022-08-30T04:04:50.899Z,16.63
2022-08-30T04:05:50.878Z,16.63
2022-08-30T04:06:50.864Z,16.58
2022-08-30T04:07:50.853Z,16.60
2022-08-30T04:08:50.847Z,16.58
2022-08-30T04:09:50.853Z,16.57
2022-08-30T04:10:50.826Z,16.58
2022-08-30T04:11:50.814Z,16.58
2022-08-30T04:12:50.835Z,16.57
2022-08-30T04:13:50.815Z,16.57
2022-08-30T04:14:50.817Z,16.58
2022-08-30T04:15:50.779Z,16.60
2022-08-30T04:16:50.808Z,16.60
2022-08-30T04:17:50.753Z,16.61
2022-08-30T04:18:50.761Z,16.63
2022-08-30T04:19:50.745Z,16.64
2022-08-30T04:20:50.762Z,16.64
2022-08-30T04:21:50.714Z,16.64
2022-08-30T04:22:50.714Z,16.64
2022-08-30T04:23:50.706Z,16.64
2022-08-30T04:24:50.699Z,16.66
2022-08-30T04:25:50.685Z,16.66
2022-08-30T04:26:50.668Z,16.67
2022-08-30T04:27:50.648Z,16.64
2022-08-30T04:28:50.637Z,16.66
2022-08-30T04:29:50.643Z,16.67
2022-08-30T04:30:50.617Z,16.63
2022-08-30T04:31:50.685Z,16.61
2022-08-30T04:32:50.605Z,16.58
2022-08-30T04:33:50.596Z,16.57
2022-08-30T04:34:50.621Z,16.58
2022-08-30T04:35:50.569Z,16.58
2022-08-30T04:36:50.573Z,16.57
2022-08-30T04:37:50.567Z,16.57
2022-08-30T04:38:50.637Z,16.58
2022-08-30T04:39:50.545Z,16.58
2022-08-30T04:40:50.521Z,16.57
2022-08-30T04:41:50.528Z,16.58
2022-08-30T04:42:50.496Z,16.61
2022-08-30T04:43:50.493Z,16.60
2022-08-30T04:44:50.497Z,16.60
2022-08-30T04:45:50.537Z,16.61
2022-08-30T04:46:50.457Z,16.60
2022-08-30T04:47:50.445Z,16.58
2022-08-30T04:48:50.439Z,16.58
2022-08-30T04:49:50.440Z,16.58
2022-08-30T04:50:50.415Z,16.56
2022-08-30T04:51:50.428Z,16.57
2022-08-30T04:52:50.399Z,16.56
2022-08-30T04:53:50.382Z,16.57
2022-08-30T04:54:50.420Z,16.58
2022-08-30T04:55:50.366Z,16.60
2022-08-30T04:56:50.356Z,16.63
2022-08-30T04:57:50.344Z,16.63
2022-08-30T04:58:50.347Z,16.61
2022-08-30T04:59:50.339Z,16.60
2022-08-30T05:00:51.108Z,16.61
2022-08-30T05:01:50.404Z,16.61
2022-08-30T05:02:50.655Z,16.60
2022-08-30T05:03:50.280Z,16.58
2022-08-30T05:04:50.296Z,16.57
2022-08-30T05:05:50.262Z,16.56
2022-08-30T05:06:50.258Z,16.56
2022-08-30T05:07:50.238Z,16.53
2022-08-30T05:08:51.050Z,16.48
2022-08-30T05:09:50.242Z,16.48
2022-08-30T05:10:50.245Z,16.45
2022-08-30T05:11:50.198Z,16.45
2022-08-30T05:12:50.206Z,16.43
2022-08-30T05:13:50.187Z,16.42
2022-08-30T05:14:50.171Z,16.39
2022-08-30T05:15:50.273Z,16.38
2022-08-30T05:16:50.150Z,16.34
2022-08-30T05:17:50.144Z,16.33
2022-08-30T05:18:50.145Z,16.31
2022-08-30T05:19:50.117Z,16.27
2022-08-30T05:20:50.123Z,16.25
2022-08-30T05:21:50.097Z,16.23
2022-08-30T05:22:53.262Z,16.20
2022-08-30T05:23:50.076Z,16.15
2022-08-30T05:24:50.065Z,16.14
2022-08-30T05:25:50.072Z,16.11
2022-08-30T05:26:50.104Z,16.09
2022-08-30T05:27:50.031Z,16.07
2022-08-30T05:28:50.032Z,16.04
2022-08-30T05:29:50.011Z,16.02
2022-08-30T05:30:50.154Z,16.00
2022-08-30T05:31:50.085Z,15.97
2022-08-30T05:32:50.002Z,15.96
2022-08-30T05:33:49.977Z,15.96
2022-08-30T05:34:49.963Z,15.94
2022-08-30T05:35:49.967Z,15.96
2022-08-30T05:36:49.941Z,16.00
2022-08-30T05:37:49.934Z,16.01
2022-08-30T05:38:49.934Z,16.01
2022-08-30T05:39:51.670Z,16.02
2022-08-30T05:40:49.955Z,16.04
2022-08-30T05:41:49.906Z,16.07
2022-08-30T05:42:49.882Z,16.08
2022-08-30T05:43:49.869Z,16.12
2022-08-30T05:44:49.861Z,16.15
2022-08-30T05:45:49.866Z,16.17
2022-08-30T05:46:49.844Z,16.21
2022-08-30T05:47:49.833Z,16.27
2022-08-30T05:48:49.822Z,16.28
2022-08-30T05:49:49.839Z,16.33
2022-08-30T05:50:49.816Z,16.38
2022-08-30T05:51:49.807Z,16.42
2022-08-30T05:52:49.787Z,16.45
2022-08-30T05:53:49.772Z,16.48
2022-08-30T05:54:49.764Z,16.50
2022-08-30T05:55:49.765Z,16.53
2022-08-30T05:56:49.736Z,16.56
2022-08-30T05:57:49.730Z,16.57
2022-08-30T05:58:49.777Z,16.56
2022-08-30T05:59:49.706Z,16.56
2022-08-30T06:00:49.715Z,16.56
2022-08-30T06:01:49.764Z,16.53
2022-08-30T06:02:49.718Z,16.52
2022-08-30T06:03:49.670Z,16.50
2022-08-30T06:04:49.670Z,16.50
2022-08-30T06:05:49.723Z,16.50
2022-08-30T06:06:49.635Z,16.49
2022-08-30T06:07:49.628Z,16.49
2022-08-30T06:08:49.619Z,16.48
2022-08-30T06:09:49.604Z,16.46
2022-08-30T06:10:49.594Z,16.46
2022-08-30T06:11:49.624Z,16.46
2022-08-30T06:12:49.584Z,16.46
2022-08-30T06:13:49.581Z,16.46
2022-08-30T06:14:49.567Z,16.46
2022-08-30T06:15:49.633Z,16.45
2022-08-30T06:16:49.557Z,16.45
2022-08-30T06:17:49.520Z,16.46
2022-08-30T06:18:49.511Z,16.45
2022-08-30T06:19:49.498Z,16.48
2022-08-30T06:20:50.173Z,16.48
2022-08-30T06:21:49.517Z,16.50
2022-08-30T06:22:49.481Z,16.52
2022-08-30T06:23:49.478Z,16.56
2022-08-30T06:24:58.020Z,16.58
2022-08-30T06:25:50.453Z,16.60
2022-08-30T06:26:49.430Z,16.61
2022-08-30T06:27:53.287Z,16.63
2022-08-30T06:28:50.424Z,16.67
2022-08-30T06:29:49.397Z,16.68
2022-08-30T06:30:49.407Z,16.73
2022-08-30T06:31:49.479Z,16.76
2022-08-30T06:32:49.371Z,16.78
2022-08-30T06:33:49.377Z,16.79
2022-08-30T06:34:49.351Z,16.82
2022-08-30T06:35:58.719Z,16.85
2022-08-30T06:36:50.324Z,16.85
2022-08-30T06:37:49.322Z,16.88
2022-08-30T06:38:49.306Z,16.86
2022-08-30T06:39:49.303Z,16.85
2022-08-30T06:40:49.304Z,16.86
2022-08-30T06:41:49.274Z,16.86
2022-08-30T06:42:49.267Z,16.86
2022-08-30T06:43:49.445Z,16.88
2022-08-30T06:44:49.252Z,16.89
2022-08-30T06:45:49.278Z,16.89
2022-08-30T06:46:49.305Z,16.93
2022-08-30T06:47:49.314Z,16.96
2022-08-30T06:48:49.203Z,16.98
2022-08-30T06:49:49.194Z,17.00
2022-08-30T06:50:49.200Z,17.03
2022-08-30T06:51:49.177Z,17.08
2022-08-30T06:52:49.165Z,17.11
2022-08-30T06:53:49.158Z,17.15
2022-08-30T06:54:49.149Z,17.19
2022-08-30T06:55:49.174Z,17.23
2022-08-30T06:56:58.226Z,17.30
2022-08-30T06:57:50.109Z,17.34
2022-08-30T06:58:49.151Z,17.41
2022-08-30T06:59:49.148Z,17.46
2022-08-30T07:00:49.080Z,17.51
2022-08-30T07:01:49.137Z,17.52
2022-08-30T07:02:49.132Z,17.56
2022-08-30T07:03:49.047Z,17.62
2022-08-30T07:04:49.039Z,17.64
2022-08-30T07:05:49.028Z,17.71
2022-08-30T07:06:49.048Z,17.71
2022-08-30T07:07:49.030Z,17.75
2022-08-30T07:08:49.001Z,17.78
2022-08-30T07:09:49.003Z,17.81
2022-08-30T07:10:48.981Z,17.84
2022-08-30T07:11:48.978Z,17.86
2022-08-30T07:12:48.977Z,17.84
2022-08-30T07:13:48.943Z,17.86
2022-08-30T07:14:48.933Z,17.89
2022-08-30T07:15:48.986Z,17.93
2022-08-30T07:16:51.266Z,17.97
2022-08-30T07:17:48.907Z,18.00
2022-08-30T07:18:48.908Z,18.07
2022-08-30T07:19:48.911Z,18.10
2022-08-30T07:20:48.873Z,18.15
2022-08-30T07:21:48.883Z,18.21
2022-08-30T07:22:48.850Z,18.25
2022-08-30T07:23:53.062Z,18.29
2022-08-30T07:24:48.835Z,18.35
2022-08-30T07:25:48.816Z,18.41
2022-08-30T07:26:48.861Z,18.47
2022-08-30T07:27:48.814Z,18.50
2022-08-30T07:28:48.790Z,18.57
2022-08-30T07:29:49.777Z,18.58
2022-08-30T07:30:48.790Z,18.65
2022-08-30T07:31:48.788Z,18.69
2022-08-30T07:32:48.748Z,18.73
2022-08-30T07:33:48.737Z,18.80
2022-08-30T07:34:48.724Z,18.84
2022-08-30T07:35:49.572Z,18.88
2022-08-30T07:36:48.718Z,18.94
2022-08-30T07:37:48.713Z,18.98
2022-08-30T07:38:48.681Z,19.04
2022-08-30T07:39:48.707Z,19.08
2022-08-30T07:40:48.706Z,19.11
2022-08-30T07:41:48.673Z,19.18
2022-08-30T07:42:48.649Z,19.23
2022-08-30T07:43:48.633Z,19.31
2022-08-30T07:44:48.622Z,19.33
2022-08-30T07:45:48.612Z,19.41
2022-08-30T07:46:48.641Z,19.46
2022-08-30T07:47:48.591Z,19.50
2022-08-30T07:48:48.578Z,19.58
2022-08-30T07:49:48.639Z,19.65
2022-08-30T07:50:48.579Z,19.68
2022-08-30T07:51:48.573Z,19.74
2022-08-30T07:52:48.558Z,19.77
2022-08-30T07:53:48.531Z,19.81
2022-08-30T07:54:48.535Z,19.84
2022-08-30T07:55:48.508Z,19.86
2022-08-30T07:56:48.516Z,19.91
2022-08-30T07:57:48.488Z,19.94
2022-08-30T07:58:48.757Z,19.98
2022-08-30T07:59:48.480Z,20.02
2022-08-30T08:00:48.461Z,20.05
2022-08-30T08:01:48.536Z,20.10
2022-08-30T08:02:48.539Z,20.10
2022-08-30T08:03:48.430Z,20.14
2022-08-30T08:04:48.427Z,20.16
2022-08-30T08:05:48.412Z,20.18
2022-08-30T08:06:48.415Z,20.18
2022-08-30T08:07:48.385Z,20.23
2022-08-30T08:08:48.375Z,20.24
2022-08-30T08:09:48.391Z,20.26
2022-08-30T08:10:48.380Z,20.31
2022-08-30T08:11:48.437Z,20.32
2022-08-30T08:12:48.385Z,20.33
2022-08-30T08:13:53.304Z,20.35
2022-08-30T08:14:49.317Z,20.33
2022-08-30T08:15:48.357Z,20.33
2022-08-30T08:16:48.309Z,20.33
2022-08-30T08:17:48.281Z,20.35
2022-08-30T08:18:48.277Z,20.35
2022-08-30T08:19:48.263Z,20.36
2022-08-30T08:20:48.289Z,20.33
2022-08-30T08:21:50.439Z,20.33
2022-08-30T08:22:49.236Z,20.35
2022-08-30T08:23:48.241Z,20.32
2022-08-30T08:24:48.211Z,20.35
2022-08-30T08:25:48.206Z,20.36
2022-08-30T08:26:48.216Z,20.38
2022-08-30T08:27:48.181Z,20.41
2022-08-30T08:28:48.173Z,20.42
2022-08-30T08:29:48.165Z,20.50
2022-08-30T08:30:48.467Z,20.54
2022-08-30T08:31:48.189Z,20.58
2022-08-30T08:32:48.147Z,20.59
2022-08-30T08:33:48.141Z,20.62
2022-08-30T08:34:48.118Z,20.67
2022-08-30T08:35:48.115Z,20.72
2022-08-30T08:36:48.088Z,20.77
2022-08-30T08:37:48.092Z,20.80
2022-08-30T08:38:48.069Z,20.87
2022-08-30T08:39:48.055Z,20.89
2022-08-30T08:40:48.046Z,20.94
2022-08-30T08:41:48.033Z,20.98
2022-08-30T08:42:48.064Z,21.01
2022-08-30T08:43:48.018Z,21.04
2022-08-30T08:45:48.004Z,21.12
2022-08-30T08:46:47.983Z,21.14
2022-08-30T08:47:47.984Z,21.21
2022-08-30T08:48:59.607Z,21.25
2022-08-30T08:49:48.966Z,21.29
2022-08-30T08:50:47.943Z,21.34
2022-08-30T08:51:47.927Z,21.37
2022-08-30T08:52:47.960Z,21.42
2022-08-30T08:53:47.935Z,21.40
2022-08-30T08:54:47.906Z,21.42
2022-08-30T08:56:47.878Z,21.44
2022-08-30T08:57:47.864Z,21.43
2022-08-30T08:58:47.881Z,21.43
2022-08-30T08:59:47.846Z,21.42
2022-08-30T09:00:47.840Z,21.40
2022-08-30T09:01:47.868Z,21.40
2022-08-30T09:02:47.819Z,21.42
2022-08-30T09:03:47.814Z,21.44
2022-08-30T09:04:47.868Z,21.43
2022-08-30T09:05:47.785Z,21.46
2022-08-30T09:06:47.770Z,21.49
2022-08-30T09:07:47.763Z,21.53
2022-08-30T09:08:47.776Z,21.54
2022-08-30T09:09:47.744Z,21.56
2022-08-30T09:10:50.902Z,21.59
2022-08-30T09:11:47.726Z,21.62
2022-08-30T09:12:47.786Z,21.68
2022-08-30T09:13:47.722Z,21.74
2022-08-30T09:14:47.694Z,21.77
2022-08-30T09:15:53.706Z,21.82
2022-08-30T09:16:48.673Z,21.86
2022-08-30T09:17:47.664Z,21.88
2022-08-30T09:18:50.240Z,21.94
2022-08-30T09:19:48.671Z,21.98
2022-08-30T09:20:47.628Z,22.00
2022-08-30T09:21:47.620Z,22.06
2022-08-30T09:22:48.621Z,22.10
2022-08-30T09:23:47.614Z,22.14
2022-08-30T09:24:47.585Z,22.18
2022-08-30T09:25:47.610Z,22.24
2022-08-30T09:26:47.576Z,22.30
2022-08-30T09:27:47.578Z,22.36
2022-08-30T09:29:48.540Z,22.46
2022-08-30T09:30:47.570Z,22.54
2022-08-30T09:31:47.518Z,22.58
2022-08-30T09:32:47.505Z,22.62
2022-08-30T09:33:47.513Z,22.68
2022-08-30T09:34:47.492Z,22.76
2022-08-30T09:35:47.499Z,22.80
2022-08-30T09:36:47.476Z,22.90
2022-08-30T09:37:47.473Z,22.92
2022-08-30T09:38:47.483Z,22.97
2022-08-30T09:39:47.434Z,23.00
2022-08-30T09:40:47.433Z,23.02
2022-08-30T09:41:47.414Z,23.02
2022-08-30T09:42:47.405Z,23.09
2022-08-30T09:43:47.417Z,23.12
2022-08-30T09:44:47.387Z,23.13
2022-08-30T09:45:47.438Z,23.15
2022-08-30T09:46:47.361Z,23.20
2022-08-30T09:47:47.349Z,23.25
2022-08-30T09:48:47.430Z,23.35
2022-08-30T09:49:47.339Z,23.40
2022-08-30T09:50:47.348Z,23.43
2022-08-30T09:51:47.324Z,23.50
2022-08-30T09:52:49.945Z,23.53
2022-08-30T09:54:07.363Z,23.54
2022-08-30T09:54:48.290Z,23.58
2022-08-30T09:55:47.269Z,23.60
2022-08-30T09:56:47.256Z,23.63
2022-08-30T09:57:47.251Z,23.65
2022-08-30T09:58:47.296Z,23.68
2022-08-30T09:59:47.238Z,23.75
2022-08-30T10:00:47.235Z,23.78
2022-08-30T10:01:47.218Z,23.83
2022-08-30T10:02:47.194Z,23.91
2022-08-30T10:03:47.198Z,23.94
2022-08-30T10:04:47.173Z,23.95
2022-08-30T10:05:47.168Z,23.94
2022-08-30T10:06:47.172Z,23.98
2022-08-30T10:07:47.208Z,24.03
2022-08-30T10:08:47.170Z,24.08
2022-08-30T10:09:47.127Z,24.10
2022-08-30T10:10:47.123Z,24.13
2022-08-30T10:11:47.103Z,24.18
2022-08-30T10:12:47.102Z,24.20
2022-08-30T10:13:47.084Z,24.25
2022-08-30T10:14:47.085Z,24.30
2022-08-30T10:15:47.062Z,24.32
2022-08-30T10:16:47.047Z,24.31
2022-08-30T10:17:47.053Z,24.31
2022-08-30T10:18:47.045Z,24.31
2022-08-30T10:19:47.053Z,24.34
2022-08-30T10:20:47.058Z,24.35
2022-08-30T10:21:47.007Z,24.39
2022-08-30T10:22:46.989Z,24.39
2022-08-30T10:23:46.978Z,24.40
2022-08-30T10:24:47.006Z,24.42
2022-08-30T10:25:46.957Z,24.43
2022-08-30T10:26:46.949Z,24.46
2022-08-30T10:27:46.942Z,24.50
2022-08-30T10:28:47.150Z,24.52
2022-08-30T10:29:46.972Z,24.53
2022-08-30T10:30:46.908Z,24.57
2022-08-30T10:31:46.924Z,24.60
2022-08-30T10:32:46.903Z,24.64
2022-08-30T10:33:46.904Z,24.64
2022-08-30T10:34:46.895Z,24.62
2022-08-30T10:35:46.857Z,24.67
2022-08-30T10:36:46.847Z,24.68
2022-08-30T10:37:46.853Z,24.69
2022-08-30T10:38:46.825Z,24.71
2022-08-30T10:39:46.841Z,24.76
2022-08-30T10:40:46.823Z,24.76
2022-08-30T10:41:46.821Z,24.81
2022-08-30T10:42:46.786Z,24.85
2022-08-30T10:43:46.815Z,24.95
2022-08-30T10:44:46.769Z,24.99
2022-08-30T10:45:46.754Z,25.03
2022-08-30T10:46:46.754Z,25.08
2022-08-30T10:47:46.732Z,25.10
2022-08-30T10:48:47.530Z,25.17
2022-08-30T10:49:46.747Z,25.20
2022-08-30T10:50:46.723Z,25.25
2022-08-30T10:51:46.715Z,25.28
2022-08-30T10:52:46.690Z,25.28
2022-08-30T10:53:46.675Z,25.32
2022-08-30T10:54:46.697Z,25.36
2022-08-30T10:55:50.026Z,25.38
2022-08-30T10:56:46.639Z,25.36
2022-08-30T10:57:46.633Z,25.38
2022-08-30T10:58:46.627Z,25.43
2022-08-30T10:59:46.634Z,25.45
2022-08-30T11:00:46.692Z,25.50
2022-08-30T11:01:47.016Z,25.47
2022-08-30T11:02:46.582Z,25.42
2022-08-30T11:03:46.581Z,25.39
2022-08-30T11:04:46.581Z,25.42
2022-08-30T11:05:46.576Z,25.45
2022-08-30T11:06:47.188Z,25.47
2022-08-30T11:07:46.532Z,25.47
2022-08-30T11:08:46.524Z,25.47
2022-08-30T11:09:46.527Z,25.54
2022-08-30T11:10:49.498Z,25.58
2022-08-30T11:11:46.549Z,25.62
2022-08-30T11:12:46.475Z,25.64
2022-08-30T11:13:46.482Z,25.64
2022-08-30T11:14:46.482Z,25.67
2022-08-30T11:15:46.446Z,25.75
2022-08-30T11:16:46.456Z,25.79
2022-08-30T11:17:46.475Z,25.80
2022-08-30T11:18:51.155Z,25.80
2022-08-30T11:19:47.435Z,25.87
2022-08-30T11:20:46.394Z,25.88
2022-08-30T11:21:46.385Z,25.90
2022-08-30T11:22:46.381Z,25.92
2022-08-30T11:23:46.385Z,25.95
2022-08-30T11:24:46.396Z,26.02
2022-08-30T11:25:46.460Z,26.07
2022-08-30T11:26:47.336Z,26.10
2022-08-30T11:27:46.340Z,26.12
2022-08-30T11:28:46.311Z,26.17
2022-08-30T11:29:46.343Z,26.18
2022-08-30T11:30:46.293Z,26.21
2022-08-30T11:31:47.520Z,26.25
2022-08-30T11:32:46.274Z,26.26
2022-08-30T11:33:46.406Z,26.29
2022-08-30T11:34:46.294Z,26.33
2022-08-30T11:35:48.634Z,26.36
2022-08-30T11:36:46.391Z,26.39
2022-08-30T11:37:46.250Z,26.44
2022-08-30T11:38:46.216Z,26.48
2022-08-30T11:39:46.220Z,26.57
2022-08-30T11:40:46.193Z,26.63
2022-08-30T11:41:46.377Z,26.67
2022-08-30T11:42:46.176Z,26.70
2022-08-30T11:43:46.162Z,26.73
2022-08-30T11:44:47.351Z,26.77
2022-08-30T11:45:46.189Z,26.82
2022-08-30T11:46:46.138Z,26.87
2022-08-30T11:47:46.143Z,26.94
2022-08-30T11:48:53.777Z,26.99
2022-08-30T11:49:47.125Z,27.03
2022-08-30T11:50:48.383Z,27.06
2022-08-30T11:52:28.607Z,27.04
2022-08-30T11:52:48.880Z,27.06
2022-08-30T11:53:46.067Z,27.02
2022-08-30T11:54:48.805Z,27.00
2022-08-30T11:55:46.053Z,26.97
2022-08-30T11:56:46.054Z,26.91
2022-08-30T11:57:46.033Z,26.87
2022-08-30T11:58:46.012Z,26.88
2022-08-30T11:59:46.030Z,26.88
2022-08-30T12:00:51.514Z,26.85
2022-08-30T12:01:51.235Z,26.89
2022-08-30T12:02:47.156Z,26.94
2022-08-30T12:03:46.158Z,27.04
2022-08-30T12:04:45.994Z,27.09
2022-08-30T12:05:45.961Z,27.12
2022-08-30T12:06:45.936Z,27.18
2022-08-30T12:07:45.931Z,27.25
2022-08-30T12:08:47.285Z,27.31
2022-08-30T12:09:45.918Z,27.37
2022-08-30T12:10:45.917Z,27.46
2022-08-30T12:11:45.892Z,27.50
2022-08-30T12:12:45.879Z,27.55
2022-08-30T12:13:45.866Z,27.65
2022-08-30T12:14:45.854Z,27.74
2022-08-30T12:15:45.859Z,27.82
2022-08-30T12:16:45.928Z,27.88
2022-08-30T12:17:45.842Z,27.90
2022-08-30T12:18:45.820Z,27.94
2022-08-30T12:19:50.347Z,28.00
2022-08-30T12:20:45.872Z,28.03
2022-08-30T12:21:45.782Z,28.07
2022-08-30T12:22:45.777Z,27.99
2022-08-30T12:23:45.768Z,27.99
2022-08-30T12:24:45.753Z,28.04
2022-08-30T12:25:45.771Z,28.09
2022-08-30T12:26:45.737Z,28.12
2022-08-30T12:27:45.740Z,28.17
2022-08-30T12:28:45.716Z,28.22
2022-08-30T12:29:45.724Z,28.25
2022-08-30T12:30:46.502Z,28.29
2022-08-30T12:31:45.755Z,28.31
2022-08-30T12:32:45.700Z,28.36
2022-08-30T12:33:45.668Z,28.40
2022-08-30T12:34:45.661Z,28.46
2022-08-30T12:35:45.666Z,28.48
2022-08-30T12:36:45.640Z,28.51
2022-08-30T12:37:45.632Z,28.54
2022-08-30T12:38:45.644Z,28.59
2022-08-30T12:39:45.614Z,28.66
2022-08-30T12:40:46.656Z,28.71
2022-08-30T12:41:45.591Z,28.77
2022-08-30T12:42:45.582Z,28.80
2022-08-30T12:43:45.563Z,28.80
2022-08-30T12:44:45.558Z,28.73
2022-08-30T12:45:45.622Z,28.78
2022-08-30T12:46:46.531Z,28.83
2022-08-30T12:47:45.516Z,28.93
2022-08-30T12:48:45.508Z,29.05
2022-08-30T12:49:45.531Z,29.08
2022-08-30T12:50:45.536Z,29.15
2022-08-30T12:51:45.487Z,29.18
2022-08-30T12:52:45.470Z,29.18
2022-08-30T12:53:45.510Z,29.15
2022-08-30T12:54:45.462Z,29.14
2022-08-30T12:55:45.471Z,29.16